sensor_id;sensor_type;location;lat;lon;timestamp;temperature;humidity
22290;DHT22;11313;50.116;8.424;2023-04-15T00:01:57;23.60;43.60
22290;DHT22;11313;50.116;8.424;2023-04-15T00:04:24;23.60;43.60
22290;DHT22;11313;50.116;8.424;2023-04-15T00:06:50;23.50;43.60
22290;DHT22;11313;50.116;8.424;2023-04-15T00:09:19;23.50;43.50
22290;DHT22;11313;50.116;8.424;2023-04-15T00:11:45;23.50;43.50
22290;DHT22;11313;50.116;8.424;2023-04-15T00:14:14;23.50;43.50
22290;DHT22;11313;50.116;8.424;2023-04-15T00:16:39;23.50;43.50
22290;DHT22;11313;50.116;8.424;2023-04-15T00:19:05;23.50;43.50
22290;DHT22;11313;50.116;8.424;2023-04-15T00:21:31;23.50;43.40
22290;DHT22;11313;50.116;8.424;2023-04-15T00:23:57;23.50;43.40
22290;DHT22;11313;50.116;8.424;2023-04-15T00:26:22;23.50;43.40
22290;DHT22;11313;50.116;8.424;2023-04-15T00:28:48;23.50;43.40
22290;DHT22;11313;50.116;8.424;2023-04-15T00:31:14;23.50;43.40
22290;DHT22;11313;50.116;8.424;2023-04-15T00:33:40;23.50;43.40
22290;DHT22;11313;50.116;8.424;2023-04-15T00:36:06;23.50;43.40
22290;DHT22;11313;50.116;8.424;2023-04-15T00:38:32;23.50;43.30
22290;DHT22;11313;50.116;8.424;2023-04-15T00:40:58;23.50;43.30
22290;DHT22;11313;50.116;8.424;2023-04-15T00:43:24;23.50;43.30
22290;DHT22;11313;50.116;8.424;2023-04-15T00:45:51;23.50;43.30
22290;DHT22;11313;50.116;8.424;2023-04-15T00:48:18;23.50;43.20
22290;DHT22;11313;50.116;8.424;2023-04-15T00:50:44;23.50;43.20
22290;DHT22;11313;50.116;8.424;2023-04-15T00:53:10;23.50;43.20
22290;DHT22;11313;50.116;8.424;2023-04-15T00:55:36;23.50;43.30
22290;DHT22;11313;50.116;8.424;2023-04-15T00:58:02;23.50;43.20
22290;DHT22;11313;50.116;8.424;2023-04-15T01:00:28;23.50;43.10
22290;DHT22;11313;50.116;8.424;2023-04-15T01:02:54;23.50;43.10
22290;DHT22;11313;50.116;8.424;2023-04-15T01:05:20;23.50;43.10
22290;DHT22;11313;50.116;8.424;2023-04-15T01:07:46;23.50;43.00
22290;DHT22;11313;50.116;8.424;2023-04-15T01:10:12;23.50;43.00
22290;DHT22;11313;50.116;8.424;2023-04-15T01:12:38;23.50;43.00
22290;DHT22;11313;50.116;8.424;2023-04-15T01:15:04;23.50;43.00
22290;DHT22;11313;50.116;8.424;2023-04-15T01:17:30;23.50;43.00
22290;DHT22;11313;50.116;8.424;2023-04-15T01:19:56;23.50;43.00
22290;DHT22;11313;50.116;8.424;2023-04-15T01:22:26;23.50;43.00
22290;DHT22;11313;50.116;8.424;2023-04-15T01:24:59;23.50;43.00
22290;DHT22;11313;50.116;8.424;2023-04-15T01:27:26;23.50;43.00
22290;DHT22;11313;50.116;8.424;2023-04-15T01:29:52;23.50;42.90
22290;DHT22;11313;50.116;8.424;2023-04-15T01:32:18;23.50;42.90
22290;DHT22;11313;50.116;8.424;2023-04-15T01:34:44;23.50;42.90
22290;DHT22;11313;50.116;8.424;2023-04-15T01:37:10;23.50;42.80
22290;DHT22;11313;50.116;8.424;2023-04-15T01:39:35;23.50;42.80
22290;DHT22;11313;50.116;8.424;2023-04-15T01:42:01;23.50;42.80
22290;DHT22;11313;50.116;8.424;2023-04-15T01:44:27;23.50;42.80
22290;DHT22;11313;50.116;8.424;2023-04-15T01:46:53;23.60;42.80
22290;DHT22;11313;50.116;8.424;2023-04-15T01:49:18;23.60;42.80
22290;DHT22;11313;50.116;8.424;2023-04-15T01:51:44;23.60;42.80
22290;DHT22;11313;50.116;8.424;2023-04-15T01:54:09;23.60;42.70
22290;DHT22;11313;50.116;8.424;2023-04-15T01:56:35;23.50;42.70
22290;DHT22;11313;50.116;8.424;2023-04-15T01:59:01;23.60;42.70
22290;DHT22;11313;50.116;8.424;2023-04-15T02:01:28;23.60;42.70
22290;DHT22;11313;50.116;8.424;2023-04-15T02:03:53;23.60;42.60
22290;DHT22;11313;50.116;8.424;2023-04-15T02:06:18;23.60;42.60
22290;DHT22;11313;50.116;8.424;2023-04-15T02:08:44;23.60;42.60
22290;DHT22;11313;50.116;8.424;2023-04-15T02:11:09;23.60;42.70
22290;DHT22;11313;50.116;8.424;2023-04-15T02:13:35;23.60;42.60
22290;DHT22;11313;50.116;8.424;2023-04-15T02:16:02;23.60;42.50
22290;DHT22;11313;50.116;8.424;2023-04-15T02:18:27;23.60;42.50
22290;DHT22;11313;50.116;8.424;2023-04-15T02:20:53;23.60;42.50
22290;DHT22;11313;50.116;8.424;2023-04-15T02:23:18;23.60;42.50
22290;DHT22;11313;50.116;8.424;2023-04-15T02:25:44;23.60;42.50
22290;DHT22;11313;50.116;8.424;2023-04-15T02:28:10;23.60;42.40
22290;DHT22;11313;50.116;8.424;2023-04-15T02:30:35;23.60;42.40
22290;DHT22;11313;50.116;8.424;2023-04-15T02:33:01;23.70;42.40
22290;DHT22;11313;50.116;8.424;2023-04-15T02:35:27;23.70;42.40
22290;DHT22;11313;50.116;8.424;2023-04-15T02:37:52;23.70;42.30
22290;DHT22;11313;50.116;8.424;2023-04-15T02:40:18;23.70;42.30
22290;DHT22;11313;50.116;8.424;2023-04-15T02:42:44;23.70;42.30
22290;DHT22;11313;50.116;8.424;2023-04-15T02:45:10;23.70;42.30
22290;DHT22;11313;50.116;8.424;2023-04-15T02:47:39;23.70;42.30
22290;DHT22;11313;50.116;8.424;2023-04-15T02:50:10;23.70;42.30
22290;DHT22;11313;50.116;8.424;2023-04-15T02:52:41;23.70;42.20
22290;DHT22;11313;50.116;8.424;2023-04-15T02:55:07;23.70;42.20
22290;DHT22;11313;50.116;8.424;2023-04-15T02:57:34;23.70;42.20
22290;DHT22;11313;50.116;8.424;2023-04-15T03:00:05;23.70;42.20
22290;DHT22;11313;50.116;8.424;2023-04-15T03:02:33;23.70;42.10
22290;DHT22;11313;50.116;8.424;2023-04-15T03:05:00;23.80;42.10
22290;DHT22;11313;50.116;8.424;2023-04-15T03:07:25;23.70;42.10
22290;DHT22;11313;50.116;8.424;2023-04-15T03:09:51;23.80;42.10
22290;DHT22;11313;50.116;8.424;2023-04-15T03:12:16;23.70;42.10
22290;DHT22;11313;50.116;8.424;2023-04-15T03:14:42;23.70;42.10
22290;DHT22;11313;50.116;8.424;2023-04-15T03:17:07;23.70;42.00
22290;DHT22;11313;50.116;8.424;2023-04-15T03:19:33;23.70;42.10
22290;DHT22;11313;50.116;8.424;2023-04-15T03:21:58;23.70;42.10
22290;DHT22;11313;50.116;8.424;2023-04-15T03:24:24;23.70;42.10
22290;DHT22;11313;50.116;8.424;2023-04-15T03:26:50;23.70;42.00
22290;DHT22;11313;50.116;8.424;2023-04-15T03:29:15;23.80;42.00
22290;DHT22;11313;50.116;8.424;2023-04-15T03:31:41;23.80;42.10
22290;DHT22;11313;50.116;8.424;2023-04-15T03:34:06;23.70;42.00
22290;DHT22;11313;50.116;8.424;2023-04-15T03:36:32;23.70;42.10
22290;DHT22;11313;50.116;8.424;2023-04-15T03:38:58;23.70;42.00
22290;DHT22;11313;50.116;8.424;2023-04-15T03:41:23;23.70;42.00
22290;DHT22;11313;50.116;8.424;2023-04-15T03:43:49;23.70;42.00
22290;DHT22;11313;50.116;8.424;2023-04-15T03:46:17;23.70;41.90
22290;DHT22;11313;50.116;8.424;2023-04-15T03:48:42;23.70;42.00
22290;DHT22;11313;50.116;8.424;2023-04-15T03:51:07;23.70;42.00
22290;DHT22;11313;50.116;8.424;2023-04-15T03:53:33;23.70;41.90
22290;DHT22;11313;50.116;8.424;2023-04-15T03:55:58;23.70;41.90
22290;DHT22;11313;50.116;8.424;2023-04-15T03:58:24;23.70;42.00
22290;DHT22;11313;50.116;8.424;2023-04-15T04:00:49;23.70;41.90
22290;DHT22;11313;50.116;8.424;2023-04-15T04:03:15;23.70;41.90
22290;DHT22;11313;50.116;8.424;2023-04-15T04:05:41;23.70;42.00
22290;DHT22;11313;50.116;8.424;2023-04-15T04:08:08;23.70;41.90
22290;DHT22;11313;50.116;8.424;2023-04-15T04:10:34;23.70;41.90
22290;DHT22;11313;50.116;8.424;2023-04-15T04:12:59;23.70;41.90
22290;DHT22;11313;50.116;8.424;2023-04-15T04:15:28;23.70;41.90
22290;DHT22;11313;50.116;8.424;2023-04-15T04:17:54;23.70;41.90
22290;DHT22;11313;50.116;8.424;2023-04-15T04:20:19;23.70;41.90
22290;DHT22;11313;50.116;8.424;2023-04-15T04:22:45;23.70;41.90
22290;DHT22;11313;50.116;8.424;2023-04-15T04:25:10;23.70;41.90
22290;DHT22;11313;50.116;8.424;2023-04-15T04:27:36;23.70;41.90
22290;DHT22;11313;50.116;8.424;2023-04-15T04:30:02;23.70;41.90
22290;DHT22;11313;50.116;8.424;2023-04-15T04:32:28;23.70;41.80
22290;DHT22;11313;50.116;8.424;2023-04-15T04:34:53;23.70;41.80
22290;DHT22;11313;50.116;8.424;2023-04-15T04:37:19;23.70;41.80
22290;DHT22;11313;50.116;8.424;2023-04-15T04:39:44;23.70;41.80
22290;DHT22;11313;50.116;8.424;2023-04-15T04:42:10;23.70;41.80
22290;DHT22;11313;50.116;8.424;2023-04-15T04:44:35;23.70;41.80
22290;DHT22;11313;50.116;8.424;2023-04-15T04:47:01;23.70;41.80
22290;DHT22;11313;50.116;8.424;2023-04-15T04:49:27;23.70;41.80
22290;DHT22;11313;50.116;8.424;2023-04-15T04:51:52;23.70;41.80
22290;DHT22;11313;50.116;8.424;2023-04-15T04:54:18;23.70;41.70
22290;DHT22;11313;50.116;8.424;2023-04-15T04:56:43;23.70;41.70
22290;DHT22;11313;50.116;8.424;2023-04-15T04:59:09;23.80;41.70
22290;DHT22;11313;50.116;8.424;2023-04-15T05:01:34;23.80;41.70
22290;DHT22;11313;50.116;8.424;2023-04-15T05:04:00;23.80;41.70
22290;DHT22;11313;50.116;8.424;2023-04-15T05:06:25;23.80;41.70
22290;DHT22;11313;50.116;8.424;2023-04-15T05:08:51;23.80;41.70
22290;DHT22;11313;50.116;8.424;2023-04-15T05:11:17;23.80;41.70
22290;DHT22;11313;50.116;8.424;2023-04-15T05:13:42;23.80;41.70
22290;DHT22;11313;50.116;8.424;2023-04-15T05:16:08;23.80;41.60
22290;DHT22;11313;50.116;8.424;2023-04-15T05:18:33;23.80;41.60
22290;DHT22;11313;50.116;8.424;2023-04-15T05:20:59;23.80;41.60
22290;DHT22;11313;50.116;8.424;2023-04-15T05:23:25;23.80;41.60
22290;DHT22;11313;50.116;8.424;2023-04-15T05:25:50;23.80;41.60
22290;DHT22;11313;50.116;8.424;2023-04-15T05:28:16;23.80;41.60
22290;DHT22;11313;50.116;8.424;2023-04-15T05:30:42;23.80;41.60
22290;DHT22;11313;50.116;8.424;2023-04-15T05:33:07;23.90;41.60
22290;DHT22;11313;50.116;8.424;2023-04-15T05:35:33;23.90;41.60
22290;DHT22;11313;50.116;8.424;2023-04-15T05:37:58;23.90;41.60
22290;DHT22;11313;50.116;8.424;2023-04-15T05:40:24;23.90;41.60
22290;DHT22;11313;50.116;8.424;2023-04-15T05:42:50;23.90;41.80
22290;DHT22;11313;50.116;8.424;2023-04-15T05:45:16;23.90;42.00
22290;DHT22;11313;50.116;8.424;2023-04-15T05:47:41;23.90;42.20
22290;DHT22;11313;50.116;8.424;2023-04-15T05:50:07;23.90;42.30
22290;DHT22;11313;50.116;8.424;2023-04-15T05:52:33;23.90;42.30
22290;DHT22;11313;50.116;8.424;2023-04-15T05:54:58;23.90;42.50
22290;DHT22;11313;50.116;8.424;2023-04-15T05:57:24;23.90;42.60
22290;DHT22;11313;50.116;8.424;2023-04-15T05:59:49;23.90;42.60
22290;DHT22;11313;50.116;8.424;2023-04-15T06:02:17;23.90;42.60
22290;DHT22;11313;50.116;8.424;2023-04-15T06:04:42;23.90;42.50
22290;DHT22;11313;50.116;8.424;2023-04-15T06:07:08;23.80;42.40
22290;DHT22;11313;50.116;8.424;2023-04-15T06:09:34;23.80;42.30
22290;DHT22;11313;50.116;8.424;2023-04-15T06:11:59;23.80;42.10
22290;DHT22;11313;50.116;8.424;2023-04-15T06:14:26;23.80;42.10
22290;DHT22;11313;50.116;8.424;2023-04-15T06:16:51;23.80;41.80
22290;DHT22;11313;50.116;8.424;2023-04-15T06:19:17;23.80;41.50
22290;DHT22;11313;50.116;8.424;2023-04-15T06:21:43;23.80;41.60
22290;DHT22;11313;50.116;8.424;2023-04-15T06:24:09;23.80;41.50
22290;DHT22;11313;50.116;8.424;2023-04-15T06:26:35;23.80;41.30
22290;DHT22;11313;50.116;8.424;2023-04-15T06:29:01;23.80;41.30
22290;DHT22;11313;50.116;8.424;2023-04-15T06:31:26;23.80;41.40
22290;DHT22;11313;50.116;8.424;2023-04-15T06:33:51;23.80;41.50
22290;DHT22;11313;50.116;8.424;2023-04-15T06:36:17;23.80;41.40
22290;DHT22;11313;50.116;8.424;2023-04-15T06:38:42;23.80;41.30
22290;DHT22;11313;50.116;8.424;2023-04-15T06:41:08;23.70;41.20
22290;DHT22;11313;50.116;8.424;2023-04-15T06:43:34;23.80;41.20
22290;DHT22;11313;50.116;8.424;2023-04-15T06:45:59;23.80;41.20
22290;DHT22;11313;50.116;8.424;2023-04-15T06:48:25;23.80;41.10
22290;DHT22;11313;50.116;8.424;2023-04-15T06:50:51;23.80;41.10
22290;DHT22;11313;50.116;8.424;2023-04-15T06:53:17;23.80;41.00
22290;DHT22;11313;50.116;8.424;2023-04-15T06:55:43;23.80;41.00
22290;DHT22;11313;50.116;8.424;2023-04-15T06:58:08;23.80;41.00
22290;DHT22;11313;50.116;8.424;2023-04-15T07:00:34;23.80;41.10
22290;DHT22;11313;50.116;8.424;2023-04-15T07:03:00;23.80;41.10
22290;DHT22;11313;50.116;8.424;2023-04-15T07:05:28;23.80;41.10
22290;DHT22;11313;50.116;8.424;2023-04-15T07:07:54;23.80;41.10
22290;DHT22;11313;50.116;8.424;2023-04-15T07:10:19;23.80;41.10
22290;DHT22;11313;50.116;8.424;2023-04-15T07:12:45;23.80;41.10
22290;DHT22;11313;50.116;8.424;2023-04-15T07:15:12;23.90;41.20
22290;DHT22;11313;50.116;8.424;2023-04-15T07:17:37;23.90;41.20
22290;DHT22;11313;50.116;8.424;2023-04-15T07:20:03;23.90;41.20
22290;DHT22;11313;50.116;8.424;2023-04-15T07:22:29;23.80;41.20
22290;DHT22;11313;50.116;8.424;2023-04-15T07:24:55;23.80;41.20
22290;DHT22;11313;50.116;8.424;2023-04-15T07:27:20;23.80;41.30
22290;DHT22;11313;50.116;8.424;2023-04-15T07:29:47;23.90;41.90
22290;DHT22;11313;50.116;8.424;2023-04-15T07:32:12;23.90;41.30
22290;DHT22;11313;50.116;8.424;2023-04-15T07:34:38;23.90;41.30
22290;DHT22;11313;50.116;8.424;2023-04-15T07:37:03;23.80;41.30
22290;DHT22;11313;50.116;8.424;2023-04-15T07:39:29;23.80;41.30
22290;DHT22;11313;50.116;8.424;2023-04-15T07:41:55;23.80;41.30
22290;DHT22;11313;50.116;8.424;2023-04-15T07:44:21;23.90;41.40
22290;DHT22;11313;50.116;8.424;2023-04-15T07:46:46;23.90;41.30
22290;DHT22;11313;50.116;8.424;2023-04-15T07:49:12;23.90;41.40
22290;DHT22;11313;50.116;8.424;2023-04-15T07:51:37;23.90;41.40
22290;DHT22;11313;50.116;8.424;2023-04-15T07:54:03;23.90;41.40
22290;DHT22;11313;50.116;8.424;2023-04-15T07:56:29;23.80;41.40
22290;DHT22;11313;50.116;8.424;2023-04-15T07:58:54;23.80;41.30
22290;DHT22;11313;50.116;8.424;2023-04-15T08:01:19;23.80;41.30
22290;DHT22;11313;50.116;8.424;2023-04-15T08:03:45;23.90;41.40
22290;DHT22;11313;50.116;8.424;2023-04-15T08:06:11;23.90;41.40
22290;DHT22;11313;50.116;8.424;2023-04-15T08:08:36;23.90;41.40
22290;DHT22;11313;50.116;8.424;2023-04-15T08:11:02;23.90;41.50
22290;DHT22;11313;50.116;8.424;2023-04-15T08:13:27;23.90;41.40
22290;DHT22;11313;50.116;8.424;2023-04-15T08:16:15;23.90;41.50
22290;DHT22;11313;50.116;8.424;2023-04-15T08:18:41;23.90;41.50
22290;DHT22;11313;50.116;8.424;2023-04-15T08:21:06;23.90;41.50
22290;DHT22;11313;50.116;8.424;2023-04-15T08:23:32;23.90;41.50
22290;DHT22;11313;50.116;8.424;2023-04-15T08:25:58;23.90;41.50
22290;DHT22;11313;50.116;8.424;2023-04-15T08:28:24;23.90;41.50
22290;DHT22;11313;50.116;8.424;2023-04-15T08:30:51;23.90;41.50
22290;DHT22;11313;50.116;8.424;2023-04-15T08:33:17;23.90;41.50
22290;DHT22;11313;50.116;8.424;2023-04-15T08:35:42;23.90;41.60
22290;DHT22;11313;50.116;8.424;2023-04-15T08:38:08;23.90;41.60
22290;DHT22;11313;50.116;8.424;2023-04-15T08:40:41;23.90;41.60
22290;DHT22;11313;50.116;8.424;2023-04-15T08:43:09;23.90;41.60
22290;DHT22;11313;50.116;8.424;2023-04-15T08:45:37;23.80;41.60
22290;DHT22;11313;50.116;8.424;2023-04-15T08:48:04;23.80;41.70
22290;DHT22;11313;50.116;8.424;2023-04-15T08:50:31;23.80;41.60
22290;DHT22;11313;50.116;8.424;2023-04-15T08:52:58;23.80;41.50
22290;DHT22;11313;50.116;8.424;2023-04-15T08:55:29;23.80;41.60
22290;DHT22;11313;50.116;8.424;2023-04-15T08:57:55;23.80;41.60
22290;DHT22;11313;50.116;8.424;2023-04-15T09:00:21;23.80;41.60
22290;DHT22;11313;50.116;8.424;2023-04-15T09:02:47;23.80;41.60
22290;DHT22;11313;50.116;8.424;2023-04-15T09:05:13;23.80;41.60
22290;DHT22;11313;50.116;8.424;2023-04-15T09:07:38;23.80;42.30
22290;DHT22;11313;50.116;8.424;2023-04-15T09:10:04;23.80;41.70
22290;DHT22;11313;50.116;8.424;2023-04-15T09:12:33;23.80;41.70
22290;DHT22;11313;50.116;8.424;2023-04-15T09:15:00;23.80;41.60
22290;DHT22;11313;50.116;8.424;2023-04-15T09:17:25;23.80;41.60
22290;DHT22;11313;50.116;8.424;2023-04-15T09:20:10;23.80;41.60
22290;DHT22;11313;50.116;8.424;2023-04-15T09:22:38;23.80;41.60
22290;DHT22;11313;50.116;8.424;2023-04-15T09:25:24;23.80;41.70
22290;DHT22;11313;50.116;8.424;2023-04-15T09:27:56;23.80;41.70
22290;DHT22;11313;50.116;8.424;2023-04-15T09:30:22;23.80;41.70
22290;DHT22;11313;50.116;8.424;2023-04-15T09:32:51;23.80;41.80
22290;DHT22;11313;50.116;8.424;2023-04-15T09:35:19;23.80;41.70
22290;DHT22;11313;50.116;8.424;2023-04-15T09:37:45;23.80;41.70
22290;DHT22;11313;50.116;8.424;2023-04-15T09:40:11;23.80;41.70
22290;DHT22;11313;50.116;8.424;2023-04-15T09:42:53;23.80;41.70
22290;DHT22;11313;50.116;8.424;2023-04-15T09:45:19;23.70;41.70
22290;DHT22;11313;50.116;8.424;2023-04-15T09:47:45;23.80;41.80
22290;DHT22;11313;50.116;8.424;2023-04-15T09:50:11;23.80;41.80
22290;DHT22;11313;50.116;8.424;2023-04-15T09:52:41;23.80;41.70
22290;DHT22;11313;50.116;8.424;2023-04-15T09:55:11;23.80;41.70
22290;DHT22;11313;50.116;8.424;2023-04-15T09:57:38;23.80;41.80
22290;DHT22;11313;50.116;8.424;2023-04-15T10:00:07;23.70;41.80
22290;DHT22;11313;50.116;8.424;2023-04-15T10:02:34;23.80;41.80
22290;DHT22;11313;50.116;8.424;2023-04-15T10:05:01;23.80;41.80
22290;DHT22;11313;50.116;8.424;2023-04-15T10:07:27;23.80;41.80
22290;DHT22;11313;50.116;8.424;2023-04-15T10:09:53;23.80;41.80
22290;DHT22;11313;50.116;8.424;2023-04-15T10:12:19;23.80;41.80
22290;DHT22;11313;50.116;8.424;2023-04-15T10:14:56;23.80;41.80
22290;DHT22;11313;50.116;8.424;2023-04-15T10:17:22;23.70;41.80
22290;DHT22;11313;50.116;8.424;2023-04-15T10:19:53;23.70;41.80
22290;DHT22;11313;50.116;8.424;2023-04-15T10:22:19;23.70;41.90
22290;DHT22;11313;50.116;8.424;2023-04-15T10:24:46;23.70;41.90
22290;DHT22;11313;50.116;8.424;2023-04-15T10:27:13;23.70;41.80
22290;DHT22;11313;50.116;8.424;2023-04-15T10:29:39;23.70;41.90
22290;DHT22;11313;50.116;8.424;2023-04-15T10:32:05;23.70;41.80
22290;DHT22;11313;50.116;8.424;2023-04-15T10:34:31;23.60;41.90
22290;DHT22;11313;50.116;8.424;2023-04-15T10:37:03;23.70;42.00
22290;DHT22;11313;50.116;8.424;2023-04-15T10:42:15;23.70;42.00
22290;DHT22;11313;50.116;8.424;2023-04-15T10:44:43;23.70;42.00
22290;DHT22;11313;50.116;8.424;2023-04-15T10:47:11;23.70;42.00
22290;DHT22;11313;50.116;8.424;2023-04-15T10:49:49;23.70;42.60
22290;DHT22;11313;50.116;8.424;2023-04-15T10:52:17;23.70;42.00
22290;DHT22;11313;50.116;8.424;2023-04-15T10:54:46;23.70;42.00
22290;DHT22;11313;50.116;8.424;2023-04-15T10:57:22;23.70;42.10
22290;DHT22;11313;50.116;8.424;2023-04-15T11:00:01;23.70;42.10
22290;DHT22;11313;50.116;8.424;2023-04-15T11:03:06;23.70;42.10
22290;DHT22;11313;50.116;8.424;2023-04-15T11:08:10;23.70;42.00
22290;DHT22;11313;50.116;8.424;2023-04-15T11:13:03;23.70;42.10
22290;DHT22;11313;50.116;8.424;2023-04-15T11:18:11;23.70;42.10
22290;DHT22;11313;50.116;8.424;2023-04-15T11:20:38;23.60;42.00
22290;DHT22;11313;50.116;8.424;2023-04-15T11:23:05;23.70;42.10
22290;DHT22;11313;50.116;8.424;2023-04-15T11:25:32;23.70;42.10
22290;DHT22;11313;50.116;8.424;2023-04-15T11:28:00;23.70;42.10
22290;DHT22;11313;50.116;8.424;2023-04-15T11:30:28;23.70;42.10
22290;DHT22;11313;50.116;8.424;2023-04-15T11:32:58;23.70;42.10
22290;DHT22;11313;50.116;8.424;2023-04-15T11:35:24;23.70;42.10
22290;DHT22;11313;50.116;8.424;2023-04-15T11:37:50;23.70;42.10
22290;DHT22;11313;50.116;8.424;2023-04-15T11:40:21;23.60;42.10
22290;DHT22;11313;50.116;8.424;2023-04-15T11:43:03;23.70;42.20
22290;DHT22;11313;50.116;8.424;2023-04-15T11:45:29;23.70;42.30
22290;DHT22;11313;50.116;8.424;2023-04-15T11:47:54;23.60;42.10
22290;DHT22;11313;50.116;8.424;2023-04-15T13:47:06;23.50;42.40
22290;DHT22;11313;50.116;8.424;2023-04-15T13:49:31;23.50;42.40
22290;DHT22;11313;50.116;8.424;2023-04-15T13:51:57;23.50;42.40
22290;DHT22;11313;50.116;8.424;2023-04-15T13:54:22;23.50;42.40
22290;DHT22;11313;50.116;8.424;2023-04-15T13:56:48;23.50;42.40
22290;DHT22;11313;50.116;8.424;2023-04-15T13:59:13;23.50;42.50
22290;DHT22;11313;50.116;8.424;2023-04-15T14:01:39;23.50;42.40
22290;DHT22;11313;50.116;8.424;2023-04-15T14:04:05;23.50;42.40
22290;DHT22;11313;50.116;8.424;2023-04-15T14:06:31;23.50;42.40
22290;DHT22;11313;50.116;8.424;2023-04-15T14:08:56;23.50;42.40
22290;DHT22;11313;50.116;8.424;2023-04-15T14:11:22;23.50;42.40
22290;DHT22;11313;50.116;8.424;2023-04-15T14:13:47;23.50;42.50
22290;DHT22;11313;50.116;8.424;2023-04-15T14:16:13;23.50;42.40
22290;DHT22;11313;50.116;8.424;2023-04-15T14:18:39;23.50;42.50
22290;DHT22;11313;50.116;8.424;2023-04-15T14:21:05;23.50;42.50
22290;DHT22;11313;50.116;8.424;2023-04-15T14:23:31;23.50;42.50
22290;DHT22;11313;50.116;8.424;2023-04-15T14:25:56;23.50;42.50
22290;DHT22;11313;50.116;8.424;2023-04-15T14:28:23;23.50;42.50
22290;DHT22;11313;50.116;8.424;2023-04-15T14:30:48;23.50;42.50
22290;DHT22;11313;50.116;8.424;2023-04-15T14:33:14;23.50;42.50
22290;DHT22;11313;50.116;8.424;2023-04-15T14:35:39;23.50;42.50
22290;DHT22;11313;50.116;8.424;2023-04-15T14:38:05;23.50;42.50
22290;DHT22;11313;50.116;8.424;2023-04-15T14:40:34;23.50;42.60
22290;DHT22;11313;50.116;8.424;2023-04-15T14:43:00;23.50;42.50
22290;DHT22;11313;50.116;8.424;2023-04-15T14:45:25;23.50;42.50
22290;DHT22;11313;50.116;8.424;2023-04-15T14:47:51;23.50;42.50
22290;DHT22;11313;50.116;8.424;2023-04-15T14:50:17;23.50;42.60
22290;DHT22;11313;50.116;8.424;2023-04-15T14:52:43;23.50;42.50
22290;DHT22;11313;50.116;8.424;2023-04-15T14:55:12;23.50;43.20
22290;DHT22;11313;50.116;8.424;2023-04-15T14:57:38;23.50;42.60
22290;DHT22;11313;50.116;8.424;2023-04-15T15:00:05;23.50;42.60
22290;DHT22;11313;50.116;8.424;2023-04-15T15:02:32;23.40;42.50
22290;DHT22;11313;50.116;8.424;2023-04-15T15:04:58;23.40;42.50
22290;DHT22;11313;50.116;8.424;2023-04-15T15:07:23;23.50;42.60
22290;DHT22;11313;50.116;8.424;2023-04-15T15:09:49;23.50;42.60
22290;DHT22;11313;50.116;8.424;2023-04-15T15:12:14;23.50;42.60
22290;DHT22;11313;50.116;8.424;2023-04-15T15:14:40;23.50;42.60
22290;DHT22;11313;50.116;8.424;2023-04-15T15:17:05;23.40;42.60
22290;DHT22;11313;50.116;8.424;2023-04-15T15:19:31;23.40;42.50
22290;DHT22;11313;50.116;8.424;2023-04-15T15:21:57;23.40;42.60
22290;DHT22;11313;50.116;8.424;2023-04-15T15:24:23;23.40;42.60
22290;DHT22;11313;50.116;8.424;2023-04-15T15:26:48;23.40;42.60
22290;DHT22;11313;50.116;8.424;2023-04-15T15:29:14;23.40;42.60
22290;DHT22;11313;50.116;8.424;2023-04-15T15:31:39;23.40;42.60
22290;DHT22;11313;50.116;8.424;2023-04-15T15:34:05;23.40;42.60
22290;DHT22;11313;50.116;8.424;2023-04-15T15:36:31;23.40;42.60
22290;DHT22;11313;50.116;8.424;2023-04-15T15:38:56;23.40;42.60
22290;DHT22;11313;50.116;8.424;2023-04-15T15:41:22;23.40;42.60
22290;DHT22;11313;50.116;8.424;2023-04-15T15:43:48;23.40;42.60
22290;DHT22;11313;50.116;8.424;2023-04-15T15:46:14;23.40;42.60
22290;DHT22;11313;50.116;8.424;2023-04-15T15:48:39;23.40;42.50
22290;DHT22;11313;50.116;8.424;2023-04-15T15:51:05;23.40;42.50
22290;DHT22;11313;50.116;8.424;2023-04-15T15:53:30;23.40;42.50
22290;DHT22;11313;50.116;8.424;2023-04-15T15:55:56;23.40;42.60
22290;DHT22;11313;50.116;8.424;2023-04-15T15:58:21;23.40;42.60
22290;DHT22;11313;50.116;8.424;2023-04-15T16:00:47;23.40;42.60
22290;DHT22;11313;50.116;8.424;2023-04-15T16:03:12;23.40;42.60
22290;DHT22;11313;50.116;8.424;2023-04-15T16:05:38;23.40;42.60
22290;DHT22;11313;50.116;8.424;2023-04-15T16:08:03;23.40;42.60
22290;DHT22;11313;50.116;8.424;2023-04-15T16:10:29;23.40;42.60
22290;DHT22;11313;50.116;8.424;2023-04-15T16:12:55;23.40;42.60
22290;DHT22;11313;50.116;8.424;2023-04-15T16:15:23;23.40;42.70
22290;DHT22;11313;50.116;8.424;2023-04-15T16:17:49;23.40;42.70
22290;DHT22;11313;50.116;8.424;2023-04-15T16:20:15;23.40;42.70
22290;DHT22;11313;50.116;8.424;2023-04-15T16:22:41;23.30;42.70
22290;DHT22;11313;50.116;8.424;2023-04-15T16:25:06;23.30;42.70
22290;DHT22;11313;50.116;8.424;2023-04-15T16:27:32;23.40;42.70
22290;DHT22;11313;50.116;8.424;2023-04-15T16:29:57;23.30;42.70
22290;DHT22;11313;50.116;8.424;2023-04-15T16:32:23;23.30;42.70
22290;DHT22;11313;50.116;8.424;2023-04-15T16:34:49;23.30;42.70
22290;DHT22;11313;50.116;8.424;2023-04-15T16:37:14;23.30;42.70
22290;DHT22;11313;50.116;8.424;2023-04-15T16:39:40;23.30;42.70
22290;DHT22;11313;50.116;8.424;2023-04-15T16:42:05;23.30;42.70
22290;DHT22;11313;50.116;8.424;2023-04-15T16:44:31;23.30;42.70
22290;DHT22;11313;50.116;8.424;2023-04-15T16:46:57;23.30;42.70
22290;DHT22;11313;50.116;8.424;2023-04-15T16:49:23;23.30;42.70
22290;DHT22;11313;50.116;8.424;2023-04-15T16:51:49;23.30;42.70
22290;DHT22;11313;50.116;8.424;2023-04-15T16:54:14;23.30;42.70
22290;DHT22;11313;50.116;8.424;2023-04-15T16:56:40;23.30;42.80
22290;DHT22;11313;50.116;8.424;2023-04-15T16:59:05;23.30;42.80
22290;DHT22;11313;50.116;8.424;2023-04-15T17:01:31;23.30;42.80
22290;DHT22;11313;50.116;8.424;2023-04-15T17:03:56;23.30;42.80
22290;DHT22;11313;50.116;8.424;2023-04-15T17:06:22;23.30;42.90
22290;DHT22;11313;50.116;8.424;2023-04-15T17:08:47;23.30;42.80
22290;DHT22;11313;50.116;8.424;2023-04-15T17:11:13;23.30;42.90
22290;DHT22;11313;50.116;8.424;2023-04-15T17:13:39;23.30;42.90
22290;DHT22;11313;50.116;8.424;2023-04-15T17:16:05;23.20;42.80
22290;DHT22;11313;50.116;8.424;2023-04-15T17:18:31;23.20;42.80
22290;DHT22;11313;50.116;8.424;2023-04-15T17:20:56;23.20;42.90
22290;DHT22;11313;50.116;8.424;2023-04-15T17:23:23;23.20;42.90
22290;DHT22;11313;50.116;8.424;2023-04-15T17:25:48;23.20;42.90
22290;DHT22;11313;50.116;8.424;2023-04-15T17:28:15;23.20;43.00
22290;DHT22;11313;50.116;8.424;2023-04-15T17:30:41;23.20;42.90
22290;DHT22;11313;50.116;8.424;2023-04-15T17:33:06;23.20;42.90